Terminal Aerodrome Forecast
Issued by NWS

Home | Current Version | Previous Version | Text Only | Print | Product List | Glossary Off
Versions: 1 2 3 4 5 6 7 8 9 10 11 12 13 14 15 16 17 18

000
FTUS42 KMHX 232300 RRA
TAFISO
TAF
KISO 232347Z 2400/2424 09010KT 3SM RA BR OVC007
     FM240800 25010G18KT 2SM -RA BR OVC004
     FM241200 30008G16KT 3SM -RA BR OVC007
     FM241900 30012G19KT P6SM BKN025
      AMD LTD TO CLD VIS AND WIND=

USA.gov is the U.S. government's official web portal to all federal, state and local government web resources and services.